Freeport, Pennsylvania
Current Conditions -  °F | °C
As of 9:15 PM on Saturday 22 Nov 2014 (Local Time) from KBTP Reporting Station
Overcast Overcast  
Wind Chill: 40°   Ceiling: 6000
Heat Index: 45°   Visibility: 10mi
Dew Point: 30°   Wind: 8mph
Humidity: 57%   Direction: 190°S
Pressure: 30.11"   Gusts: NA
Location:  40.67°N, 79.68°W
Report Text: KBTP 230215Z AUTO 19007KT 10SM BKN060 OVC080 07/M01 A3011 RMK AO1
Loading
Personal Weather Stations






























Interactive Weather Map New forecast layout! Learn more

10-Day Weather Forecast

Advertisements
Track Severe Weather on mobile